Time;durP1;ratioP1;P1;durP2;ratioP2;P2;SDS_P1;SDS_P2;PMS_P1;PMS_P2;Temp;Humidity;BMP_temperature;BMP_pressure;BME280_temperature;BME280_humidity;BME280_pressure;Samples;Min_cycle;Max_cycle;Signal;HPM_P1;HPM_P2
2023/07/06 00:01:25;;;;;;;;;;;;;;;29.37;37.80;94437.81;4966432;28;9125;-57
2023/07/06 00:03:56;;;;;;;;;;;;;;;29.34;38.29;94435.38;4966726;28;7063;-57
2023/07/06 00:06:26;;;;;;;;;;;;;;;29.33;38.04;94429.06;4966380;28;7195;-57
2023/07/06 00:08:55;;;;;;;;;;;;;;;29.34;37.76;94419.47;4973792;28;7090;-57
2023/07/06 00:11:23;;;;;;;;;;;;;;;29.33;37.87;94406.16;5000652;28;9058;-57
2023/07/06 00:13:55;;;;;;;;;;;;;;;29.32;38.29;94397.09;4983567;28;7161;-57
2023/07/06 00:16:23;;;;;;;;;;;;;;;29.35;38.78;94403.59;4982829;28;7223;-57
2023/07/06 00:18:49;;;;;;;;;;;;;;;29.35;37.95;94403.59;4998291;28;7276;-57
2023/07/06 00:21:17;;;;;;;;;;;;;;;29.35;37.96;94403.59;4981854;28;9262;-57
2023/07/06 00:23:43;;;;;;;;;;;;;;;29.32;38.70;94399.13;4964921;28;6968;-57
2023/07/06 00:26:10;;;;;;;;;;;;;;;29.32;37.71;94391.56;4966110;28;8756;-57
2023/07/06 00:28:36;;;;;;;;;;;;;;;29.31;38.04;94400.41;4983760;28;7041;-57
2023/07/06 00:31:10;;;;;;;;;;;;;;;29.31;37.60;94406.69;4966428;28;7763;-57
2023/07/06 00:33:39;;;;;;;;;;;;;;;29.33;37.83;94411.69;4981367;28;8773;-57
2023/07/06 00:36:06;;;;;;;;;;;;;;;29.32;38.66;94405.41;4965293;28;7030;-63
2023/07/06 00:38:37;;;;;;;;;;;;;;;29.32;38.52;94399.13;4965789;28;8767;-63
2023/07/06 00:41:03;;;;;;;;;;;;;;;29.33;38.42;94411.69;4997865;28;7916;-63
2023/07/06 00:43:54;;;;;;;;;;;;;;;29.32;38.31;94422.03;4999639;28;9417;-63
2023/07/06 00:46:39;;;;;;;;;;;;;;;29.30;37.69;94430.13;5001229;28;9568;-63
2023/07/06 00:49:17;;;;;;;;;;;;;;;29.31;38.66;94426.09;4990279;28;7117;-63
2023/07/06 00:52:06;;;;;;;;;;;;;;;29.28;38.34;94418.09;4968314;28;6982;-63
2023/07/06 00:54:40;;;;;;;;;;;;;;;29.30;37.76;94426.59;4984212;28;7431;-63
2023/07/06 00:57:09;;;;;;;;;;;;;;;29.30;38.57;94421.81;4980974;28;8701;-64
2023/07/06 01:00:04;;;;;;;;;;;;;;;29.30;38.38;94423.84;4984602;28;8751;-64
2023/07/06 01:03:08;;;;;;;;;;;;;;;29.30;38.89;94418.28;4935072;29;7075;-64
2023/07/06 01:06:01;;;;;;;;;;;;;;;29.31;38.10;94425.34;4872093;29;7629;-63
2023/07/06 01:08:47;;;;;;;;;;;;;;;29.27;37.89;94413.84;4874921;29;8786;-63
2023/07/06 01:11:37;;;;;;;;;;;;;;;29.29;38.30;94402.97;4886955;29;9036;-63
2023/07/06 01:14:37;;;;;;;;;;;;;;;29.30;38.23;94398.91;4885406;29;7285;-63
2023/07/06 01:17:36;;;;;;;;;;;;;;;29.27;38.39;94395.19;4831289;29;7236;-63
2023/07/06 01:20:20;;;;;;;;;;;;;;;29.27;37.72;94394.44;4816599;29;8847;-63
2023/07/06 01:23:16;;;;;;;;;;;;;;;29.24;38.05;94393.50;4816381;29;9085;-63
2023/07/06 01:26:27;;;;;;;;;;;;;;;29.24;38.79;94393.50;4830136;29;7334;-63
2023/07/06 01:29:16;;;;;;;;;;;;;;;29.23;38.34;94386.44;4831232;29;9129;-63
2023/07/06 01:32:03;;;;;;;;;;;;;;;29.22;37.89;94389.75;4829855;29;9084;-63
2023/07/06 01:35:18;;;;;;;;;;;;;;;29.23;38.91;94394.75;4829128;29;7244;-63
2023/07/06 01:37:45;;;;;;;;;;;;;;;29.21;37.68;94391.06;4839847;29;9115;-63
2023/07/06 01:40:12;;;;;;;;;;;;;;;29.22;38.03;94384.22;4871448;29;8724;-63
2023/07/06 01:42:40;;;;;;;;;;;;;;;29.21;37.66;94385.50;4890298;29;9483;-63
2023/07/06 01:45:11;;;;;;;;;;;;;;;29.21;38.19;94386.22;4888999;29;9146;-63
2023/07/06 01:47:48;;;;;;;;;;;;;;;29.21;38.61;94380.69;4888866;29;7247;-63
2023/07/06 01:50:20;;;;;;;;;;;;;;;29.21;38.32;94389.00;4857621;29;7266;-64
2023/07/06 01:53:22;;;;;;;;;;;;;;;29.20;38.18;94387.53;4883718;29;7282;-63
2023/07/06 01:56:01;;;;;;;;;;;;;;;29.20;38.64;94395.09;4919216;29;8152;-64
2023/07/06 01:58:37;;;;;;;;;;;;;;;29.18;38.17;94394.88;4905051;29;8967;-63
2023/07/06 02:01:14;;;;;;;;;;;;;;;29.20;38.46;94392.31;4920672;28;7053;-63
2023/07/06 02:03:47;;;;;;;;;;;;;;;29.18;37.84;94394.88;4920675;29;6981;-64
2023/07/06 02:06:17;;;;;;;;;;;;;;;29.16;38.43;94394.66;4924973;28;7323;-64
2023/07/06 02:08:54;;;;;;;;;;;;;;;29.16;38.58;94400.19;4922471;29;7188;-64
2023/07/06 02:11:35;;;;;;;;;;;;;;;29.16;37.76;94391.88;4907142;29;8865;-64
2023/07/06 02:14:02;;;;;;;;;;;;;;;29.15;38.53;94396.66;4941127;28;7888;-64
2023/07/06 02:16:31;;;;;;;;;;;;;;;29.15;38.38;94391.13;4963950;28;9253;-64
2023/07/06 02:19:03;;;;;;;;;;;;;;;29.16;37.89;94402.94;4980843;28;7357;-63
2023/07/06 02:21:36;;;;;;;;;;;;;;;29.14;37.82;94394.44;4979617;28;7177;-63
2023/07/06 02:24:03;;;;;;;;;;;;;;;29.10;38.04;94395.50;4979191;28;7244;-64
2023/07/06 02:26:29;;;;;;;;;;;;;;;29.14;37.83;94399.97;4962639;28;7285;-64
2023/07/06 02:28:57;;;;;;;;;;;;;;;29.14;38.01;94392.41;4995352;28;7176;-64
2023/07/06 02:31:26;;;;;;;;;;;;;;;29.13;38.57;94390.91;4980717;28;8521;-63
2023/07/06 02:33:52;;;;;;;;;;;;;;;29.10;37.96;94398.25;4983128;28;9540;-64
2023/07/06 02:36:18;;;;;;;;;;;;;;;29.13;38.07;94384.63;4995894;28;8786;-64
2023/07/06 02:38:45;;;;;;;;;;;;;;;29.17;38.30;94390.63;4967916;28;7274;-64
2023/07/06 02:41:20;;;;;;;;;;;;;;;29.16;38.36;94375.25;4982323;28;7207;-63
2023/07/06 02:44:02;;;;;;;;;;;;;;;29.17;38.41;94377.50;4980880;28;7246;-64
2023/07/06 02:46:29;;;;;;;;;;;;;;;29.18;37.27;94375.50;4995667;28;6986;-64
2023/07/06 02:48:58;;;;;;;;;;;;;;;29.16;37.74;94370.50;4963536;28;7160;-63
2023/07/06 02:51:23;;;;;;;;;;;;;;;29.15;37.53;94374.50;4981276;28;7149;-64
2023/07/06 02:53:56;;;;;;;;;;;;;;;29.18;37.45;94372.72;4997356;28;7224;-62
2023/07/06 02:56:22;;;;;;;;;;;;;;;29.14;37.69;94369.50;4981763;28;7344;-61
2023/07/06 02:58:56;;;;;;;;;;;;;;;29.09;38.27;94376.66;4985353;28;7124;-62
2023/07/06 03:01:23;;;;;;;;;;;;;;;29.07;37.80;94371.66;4969052;28;7238;-62
2023/07/06 03:03:51;;;;;;;;;;;;;;;29.08;37.70;94375.91;4984033;28;6991;-62
2023/07/06 03:06:19;;;;;;;;;;;;;;;29.07;37.93;94371.66;4966142;28;9287;-61
2023/07/06 03:08:53;;;;;;;;;;;;;;;29.08;38.03;94370.34;4967121;28;7217;-61
2023/07/06 03:11:29;;;;;;;;;;;;;;;29.08;37.77;94373.13;4967217;28;7194;-61
2023/07/06 03:13:56;;;;;;;;;;;;;;;29.07;38.38;94374.41;4985354;28;7335;-62
2023/07/06 03:16:39;;;;;;;;;;;;;;;29.07;37.75;94368.88;5002658;28;7401;-61
2023/07/06 03:19:08;;;;;;;;;;;;;;;29.06;38.35;94359.06;4969524;28;7163;-62
2023/07/06 03:21:35;;;;;;;;;;;;;;;29.02;38.51;94355.13;5002053;28;7229;-62
2023/07/06 03:24:06;;;;;;;;;;;;;;;28.99;37.93;94359.72;4968854;28;7339;-61
2023/07/06 03:26:40;;;;;;;;;;;;;;;28.97;37.98;94356.00;4984559;28;7351;-61
2023/07/06 03:29:08;;;;;;;;;;;;;;;28.96;38.49;94363.56;4984200;28;9984;-61
2023/07/06 03:31:42;;;;;;;;;;;;;;;28.92;37.79;94349.31;4983696;28;8741;-61
2023/07/06 03:34:08;;;;;;;;;;;;;;;28.91;38.65;94345.03;4965707;28;8771;-62
2023/07/06 03:36:35;;;;;;;;;;;;;;;28.93;37.97;94350.78;4997758;28;9228;-61
2023/07/06 03:39:02;;;;;;;;;;;;;;;28.91;38.16;94355.34;4985667;28;7344;-61
2023/07/06 03:41:29;;;;;;;;;;;;;;;28.90;38.54;94351.88;4966830;28;6984;-61
2023/07/06 03:44:01;;;;;;;;;;;;;;;28.92;38.24;94362.41;4998246;28;8031;-61
2023/07/06 03:46:43;;;;;;;;;;;;;;;28.90;38.15;94362.19;4969598;28;7263;-61
2023/07/06 03:49:13;;;;;;;;;;;;;;;28.91;38.19;94364.41;4984685;28;7231;-61
2023/07/06 03:51:51;;;;;;;;;;;;;;;28.90;38.05;94351.88;4982175;28;9401;-61
2023/07/06 03:54:17;;;;;;;;;;;;;;;28.90;37.63;94362.94;4984586;28;7057;-60
2023/07/06 03:56:44;;;;;;;;;;;;;;;28.90;37.85;94359.41;4981899;28;9133;-61
2023/07/06 03:59:10;;;;;;;;;;;;;;;28.89;38.28;94350.34;4965857;28;8918;-61
2023/07/06 04:01:36;;;;;;;;;;;;;;;28.89;37.69;94353.13;4997491;28;9062;-60
2023/07/06 04:04:05;;;;;;;;;;;;;;;28.89;38.46;94357.91;4985804;28;9147;-64
2023/07/06 04:06:42;;;;;;;;;;;;;;;28.89;38.53;94355.91;4982272;28;6971;-64
2023/07/06 04:09:13;;;;;;;;;;;;;;;28.88;37.90;94364.75;4968810;28;9020;-64
2023/07/06 04:11:41;;;;;;;;;;;;;;;28.88;38.36;94362.69;4989542;28;9116;-64
2023/07/06 04:14:33;;;;;;;;;;;;;;;28.87;38.06;94361.22;4968886;28;7445;-64
2023/07/06 04:16:59;;;;;;;;;;;;;;;28.87;38.38;94366.75;4984651;28;7207;-65
2023/07/06 04:19:39;;;;;;;;;;;;;;;28.88;37.65;94368.25;4967340;28;6915;-64
2023/07/06 04:22:54;;;;;;;;;;;;;;;28.88;38.46;94367.50;5000787;28;9188;-64
2023/07/06 04:25:46;;;;;;;;;;;;;;;28.88;38.14;94359.22;4953728;28;7081;-65
2023/07/06 04:28:27;;;;;;;;;;;;;;;28.84;38.52;94365.03;4952621;28;7469;-64
2023/07/06 04:30:54;;;;;;;;;;;;;;;28.86;37.84;94351.41;4952374;28;6910;-64
2023/07/06 04:33:21;;;;;;;;;;;;;;;28.86;37.46;94359.72;4953252;28;8682;-64
2023/07/06 04:36:09;;;;;;;;;;;;;;;28.86;38.23;94337.56;4936082;28;7241;-64
2023/07/06 04:38:53;;;;;;;;;;;;;;;28.89;38.38;94335.75;4936534;28;9363;-64
2023/07/06 04:41:32;;;;;;;;;;;;;;;28.89;38.23;94333.00;4952558;28;9051;-64
2023/07/06 04:44:01;;;;;;;;;;;;;;;28.86;37.84;94332.03;4953417;28;9063;-65
2023/07/06 04:46:40;;;;;;;;;;;;;;;28.85;38.15;94338.88;4935981;28;8228;-65
2023/07/06 04:49:23;;;;;;;;;;;;;;;28.85;37.76;94343.66;4933673;28;6921;-64
2023/07/06 04:51:58;;;;;;;;;;;;;;;28.88;38.04;94339.81;4952194;28;7087;-65
2023/07/06 04:54:28;;;;;;;;;;;;;;;28.84;38.59;94336.63;4936333;28;8428;-65
2023/07/06 04:56:57;;;;;;;;;;;;;;;28.85;38.23;94346.41;4936246;28;7009;-65
2023/07/06 04:59:23;;;;;;;;;;;;;;;28.78;38.46;94338.75;4952267;28;8939;-65
2023/07/06 05:01:51;;;;;;;;;;;;;;;28.81;38.64;94355.06;4962432;28;7252;-65
2023/07/06 05:04:18;;;;;;;;;;;;;;;28.82;38.25;94353.00;4984724;28;7912;-65
2023/07/06 05:06:47;;;;;;;;;;;;;;;28.81;38.61;94363.38;4970733;28;9220;-65
2023/07/06 05:09:24;;;;;;;;;;;;;;;28.79;37.88;94354.84;4974262;28;7231;-65
2023/07/06 05:12:01;;;;;;;;;;;;;;;28.80;38.67;94345.25;4970222;28;8341;-65
2023/07/06 05:14:52;;;;;;;;;;;;;;;28.81;38.68;94340.47;4984948;28;7471;-61
2023/07/06 05:17:19;;;;;;;;;;;;;;;28.80;38.61;94350.78;4983733;28;7236;-61
2023/07/06 05:20:14;;;;;;;;;;;;;;;28.81;38.09;94354.31;4968233;28;6997;-61
2023/07/06 05:22:48;;;;;;;;;;;;;;;28.81;38.44;94352.28;4966212;28;7008;-61
2023/07/06 05:25:21;;;;;;;;;;;;;;;28.77;38.68;94348.34;5000496;28;7329;-61
2023/07/06 05:27:57;;;;;;;;;;;;;;;28.77;38.24;94349.09;4983710;28;7455;-61
2023/07/06 05:30:23;;;;;;;;;;;;;;;28.77;38.57;94351.88;4966864;28;8834;-61
2023/07/06 05:32:51;;;;;;;;;;;;;;;28.79;38.88;94345.78;4984423;28;7281;-61
2023/07/06 05:35:49;;;;;;;;;;;;;;;28.79;38.17;94354.84;4985514;28;7411;-61
2023/07/06 05:38:17;;;;;;;;;;;;;;;28.79;39.04;94349.31;4951478;28;7247;-61
2023/07/06 05:40:47;;;;;;;;;;;;;;;28.77;38.63;94346.34;4948273;28;6977;-61
2023/07/06 05:43:22;;;;;;;;;;;;;;;28.79;38.26;94348.56;4963220;28;8842;-61
2023/07/06 05:46:02;;;;;;;;;;;;;;;28.79;38.80;94349.31;4947617;28;9076;-61
2023/07/06 05:48:38;;;;;;;;;;;;;;;28.80;38.31;94359.09;4970077;28;9120;-61
2023/07/06 05:51:04;;;;;;;;;;;;;;;28.82;38.92;94362.06;4950651;28;7189;-61
2023/07/06 05:53:59;;;;;;;;;;;;;;;28.83;38.68;94354.53;4961959;28;7191;-61
2023/07/06 05:56:30;;;;;;;;;;;;;;;28.80;38.58;94356.31;4907945;29;9078;-61
2023/07/06 05:58:56;;;;;;;;;;;;;;;28.80;38.93;94361.84;4906621;29;8948;-61
2023/07/06 06:01:36;;;;;;;;;;;;;;;28.82;38.55;94373.16;4924156;29;7460;-61
2023/07/06 06:04:13;;;;;;;;;;;;;;;28.82;39.18;94359.31;4907371;29;7113;-61
2023/07/06 06:06:54;;;;;;;;;;;;;;;28.83;39.13;94366.34;4925210;29;7264;-61
2023/07/06 06:09:29;;;;;;;;;;;;;;;28.84;38.71;94378.91;4920047;29;8738;-61
2023/07/06 06:11:56;;;;;;;;;;;;;;;28.84;38.46;94380.94;4902235;29;9191;-61
2023/07/06 06:14:22;;;;;;;;;;;;;;;28.82;38.82;94364.84;4916360;28;7031;-61
2023/07/06 06:16:47;;;;;;;;;;;;;;;28.83;39.06;94366.34;4938912;28;9042;-61
2023/07/06 06:19:15;;;;;;;;;;;;;;;28.84;39.08;94373.34;4954467;28;8901;-61
2023/07/06 06:21:43;;;;;;;;;;;;;;;28.79;39.39;94374.22;4938505;28;7332;-61
2023/07/06 06:24:43;;;;;;;;;;;;;;;28.82;38.94;94375.91;4956534;28;7309;-56
2023/07/06 06:27:15;;;;;;;;;;;;;;;28.82;39.09;94372.41;4914399;29;7201;-56
2023/07/06 06:29:46;;;;;;;;;;;;;;;28.82;39.20;94367.59;4915539;29;8986;-55
2023/07/06 06:32:36;;;;;;;;;;;;;;;28.84;39.13;94359.50;4909540;29;7147;-56
2023/07/06 06:35:23;;;;;;;;;;;;;;;28.86;39.05;94365.25;4907164;29;9217;-56
2023/07/06 06:38:05;;;;;;;;;;;;;;;28.88;39.24;94364.75;4906585;29;7251;-56
2023/07/06 06:40:41;;;;;;;;;;;;;;;28.83;38.97;94358.03;4906264;29;9036;-56
2023/07/06 06:43:19;;;;;;;;;;;;;;;28.86;39.17;94370.78;4923017;29;7518;-56
2023/07/06 06:45:47;;;;;;;;;;;;;;;28.84;39.74;94367.81;4923479;29;7000;-56
2023/07/06 06:48:43;;;;;;;;;;;;;;;28.87;38.81;94366.75;4909226;29;7481;-56
2023/07/06 06:51:18;;;;;;;;;;;;;;;28.86;38.88;94364.53;4898178;29;9059;-56
2023/07/06 06:53:47;;;;;;;;;;;;;;;28.85;38.84;94368.56;4880067;29;9175;-56
2023/07/06 06:56:45;;;;;;;;;;;;;;;28.87;39.17;94368.78;4881052;29;7277;-56
2023/07/06 06:59:12;;;;;;;;;;;;;;;28.86;39.21;94367.31;4893427;29;7201;-56
2023/07/06 07:02:00;;;;;;;;;;;;;;;28.87;39.05;94366.75;4894966;29;9614;-56
2023/07/06 07:04:26;;;;;;;;;;;;;;;28.88;39.00;94378.59;4898509;29;7631;-56
2023/07/06 07:06:56;;;;;;;;;;;;;;;28.88;39.33;94373.06;4894504;29;7264;-56
2023/07/06 07:09:37;;;;;;;;;;;;;;;28.89;39.38;94382.84;4897615;29;9333;-55
2023/07/06 07:12:07;;;;;;;;;;;;;;;28.87;39.28;94375.06;4898326;29;7236;-56
2023/07/06 07:14:35;;;;;;;;;;;;;;;28.88;38.93;94379.31;4898834;29;8994;-56
2023/07/06 07:17:07;;;;;;;;;;;;;;;28.89;39.21;94375.28;4910984;29;7197;-56
2023/07/06 07:19:34;;;;;;;;;;;;;;;28.87;39.97;94380.59;4910132;29;6936;-58
2023/07/06 07:22:02;;;;;;;;;;;;;;;28.90;39.21;94373.25;4909240;29;7725;-56
2023/07/06 07:24:32;;;;;;;;;;;;;;;28.95;39.61;94375.16;4893889;29;7650;-56
2023/07/06 07:27:02;;;;;;;;;;;;;;;28.94;39.72;94370.91;4902034;29;6985;-56
2023/07/06 07:29:28;;;;;;;;;;;;;;;28.98;39.91;94368.56;4923805;28;7237;-55
2023/07/06 07:32:03;;;;;;;;;;;;;;;28.99;39.72;94373.56;4915954;29;7336;-56
2023/07/06 07:34:32;;;;;;;;;;;;;;;29.01;39.49;94367.50;4945697;28;9213;-63
2023/07/06 07:37:13;;;;;;;;;;;;;;;29.01;39.78;94368.22;4984470;28;7061;-63
2023/07/06 07:39:42;;;;;;;;;;;;;;;29.03;38.88;94367.72;4967003;28;7025;-62
2023/07/06 07:42:10;;;;;;;;;;;;;;;29.00;38.94;94352.91;4967443;28;6952;-63
2023/07/06 07:44:37;;;;;;;;;;;;;;;29.03;39.41;94365.69;4998241;28;6951;-63
2023/07/06 07:47:05;;;;;;;;;;;;;;;29.03;39.53;94365.69;4968326;28;9147;-63
2023/07/06 07:49:32;;;;;;;;;;;;;;;29.04;39.18;94366.41;4983510;28;7179;-63
2023/07/06 07:51:58;;;;;;;;;;;;;;;29.02;39.08;94364.19;4982123;28;9139;-64
2023/07/06 07:54:26;;;;;;;;;;;;;;;29.03;39.18;94378.78;4983037;28;9070;-63
2023/07/06 07:56:54;;;;;;;;;;;;;;;28.99;38.98;94367.28;4966375;28;7233;-64
2023/07/06 07:59:23;;;;;;;;;;;;;;;29.03;38.43;94374.00;4981499;28;7230;-63
2023/07/06 08:02:00;;;;;;;;;;;;;;;29.03;38.45;94378.78;4974319;28;9083;-64
2023/07/06 08:04:57;;;;;;;;;;;;;;;29.04;39.49;94383.03;4967474;28;6984;-63
2023/07/06 08:07:40;;;;;;;;;;;;;;;29.03;38.59;94376.78;4934997;28;7122;-64
2023/07/06 08:10:10;;;;;;;;;;;;;;;29.05;38.67;94379.00;4947524;28;9050;-63
2023/07/06 08:12:48;;;;;;;;;;;;;;;29.04;38.95;94386.56;4933083;28;9083;-63
2023/07/06 08:15:15;;;;;;;;;;;;;;;29.04;38.65;94388.56;4948652;28;7129;-63
2023/07/06 08:17:42;;;;;;;;;;;;;;;29.03;38.57;94396.16;4945041;28;7077;-64
2023/07/06 08:20:13;;;;;;;;;;;;;;;29.02;38.74;94389.13;4951712;28;9131;-63
2023/07/06 08:22:45;;;;;;;;;;;;;;;29.01;37.93;94387.63;4934136;28;7576;-64
2023/07/06 08:25:10;;;;;;;;;;;;;;;29.01;38.41;94387.63;4934207;28;7283;-64
2023/07/06 08:27:46;;;;;;;;;;;;;;;28.96;37.65;94387.72;4946208;28;7189;-63
2023/07/06 08:30:16;;;;;;;;;;;;;;;29.00;38.13;94397.22;4942912;28;7112;-63
2023/07/06 08:32:43;;;;;;;;;;;;;;;29.02;37.38;94399.44;4952421;28;8975;-63
2023/07/06 08:35:34;;;;;;;;;;;;;;;29.00;37.88;94399.97;4942710;28;7122;-63
2023/07/06 08:38:04;;;;;;;;;;;;;;;28.95;37.47;94398.06;4933834;28;7466;-64
2023/07/06 08:40:36;;;;;;;;;;;;;;;28.93;37.12;94397.84;4920614;28;7360;-64
2023/07/06 08:43:19;;;;;;;;;;;;;;;28.95;36.56;94403.59;4941102;28;8903;-64
2023/07/06 08:45:52;;;;;;;;;;;;;;;28.95;35.81;94405.63;4988203;28;7207;-57
2023/07/06 08:48:25;;;;;;;;;;;;;;;28.95;35.80;94411.91;4969371;28;7272;-56
2023/07/06 08:50:57;;;;;;;;;;;;;;;28.96;35.95;94401.59;4972963;28;8897;-56
2023/07/06 08:53:32;;;;;;;;;;;;;;;28.97;35.90;94411.41;4982257;28;9143;-56
2023/07/06 08:56:03;;;;;;;;;;;;;;;28.94;35.74;94410.44;4982773;28;7063;-56
2023/07/06 08:58:34;;;;;;;;;;;;;;;28.93;35.29;94408.94;4982650;28;7155;-56
2023/07/06 09:01:15;;;;;;;;;;;;;;;28.92;35.85;94412.22;4996624;28;8684;-56
2023/07/06 09:03:50;;;;;;;;;;;;;;;28.92;35.23;94407.44;4982182;28;9060;-56
2023/07/06 09:06:23;;;;;;;;;;;;;;;28.91;35.80;94410.72;4963286;28;7057;-56
2023/07/06 09:09:02;;;;;;;;;;;;;;;28.93;35.77;94408.94;4971058;28;9243;-56
2023/07/06 09:11:33;;;;;;;;;;;;;;;28.93;35.04;94419.25;4965117;28;9059;-56
2023/07/06 09:14:07;;;;;;;;;;;;;;;28.91;35.25;94410.72;4965596;28;8166;-56
2023/07/06 09:16:39;;;;;;;;;;;;;;;28.91;35.15;94411.47;4981570;28;7292;-56
2023/07/06 09:19:09;;;;;;;;;;;;;;;28.90;35.16;94410.00;4981456;28;7004;-56
2023/07/06 09:21:38;;;;;;;;;;;;;;;28.92;35.18;94412.22;4996722;28;9103;-56
2023/07/06 09:24:05;;;;;;;;;;;;;;;28.92;35.09;94418.53;4981040;28;6997;-56
2023/07/06 09:26:35;;;;;;;;;;;;;;;28.90;35.32;94415.53;4981824;28;9104;-56
2023/07/06 09:29:20;;;;;;;;;;;;;;;28.91;35.50;94416.28;4983386;28;7240;-56
2023/07/06 09:31:47;;;;;;;;;;;;;;;28.93;35.07;94419.25;4996231;28;7254;-56
2023/07/06 09:34:26;;;;;;;;;;;;;;;28.89;35.43;94410.53;4963580;28;9331;-56
2023/07/06 09:36:52;;;;;;;;;;;;;;;28.90;35.58;94415.53;4980276;28;9567;-56
2023/07/06 09:39:18;;;;;;;;;;;;;;;28.91;35.34;94410.72;4966417;28;8354;-56
2023/07/06 09:41:47;;;;;;;;;;;;;;;28.91;35.09;94414.25;4964994;28;7537;-56
2023/07/06 09:44:20;;;;;;;;;;;;;;;28.88;35.12;94418.06;4963326;28;7303;-56
2023/07/06 09:46:56;;;;;;;;;;;;;;;28.88;34.44;94420.13;4980062;28;7208;-56
2023/07/06 09:49:33;;;;;;;;;;;;;;;28.89;34.40;94414.03;4995384;28;9430;-56
2023/07/06 09:52:09;;;;;;;;;;;;;;;28.89;34.51;94408.50;4964744;28;7315;-56
2023/07/06 09:55:01;;;;;;;;;;;;;;;28.90;34.74;94407.25;4964078;28;7014;-62
2023/07/06 09:57:33;;;;;;;;;;;;;;;28.91;34.81;94407.97;4964746;28;7510;-63
2023/07/06 10:00:03;;;;;;;;;;;;;;;28.88;34.41;94409.78;4965729;28;7226;-63
2023/07/06 10:03:01;;;;;;;;;;;;;;;28.88;34.22;94407.00;4994693;28;9301;-62
2023/07/06 10:06:00;;;;;;;;;;;;;;;28.90;34.85;94410.00;4979480;28;6947;-62
2023/07/06 10:08:58;;;;;;;;;;;;;;;28.91;33.85;94402.44;4979019;28;8870;-62
2023/07/06 10:11:43;;;;;;;;;;;;;;;28.92;34.28;94415.00;4980869;28;9180;-62
2023/07/06 10:14:20;;;;;;;;;;;;;;;28.92;34.09;94410.22;4969820;28;7415;-62
2023/07/06 10:17:26;;;;;;;;;;;;;;;28.92;34.80;94403.94;4979699;28;8681;-62
2023/07/06 10:20:17;;;;;;;;;;;;;;;28.94;34.73;94407.66;4980646;28;9047;-62
2023/07/06 10:23:28;;;;;;;;;;;;;;;28.97;34.90;94408.63;4968958;28;7228;-62
2023/07/06 10:26:26;;;;;;;;;;;;;;;28.98;33.31;94408.09;4930785;29;6992;-62
2023/07/06 10:29:29;;;;;;;;;;;;;;;28.97;33.36;94401.03;4931079;29;7614;-62
2023/07/06 10:32:12;;;;;;;;;;;;;;;28.97;33.56;94409.34;4881226;29;8707;-62
2023/07/06 10:35:19;;;;;;;;;;;;;;;28.98;34.37;94413.63;4875395;29;7318;-63
2023/07/06 10:38:24;;;;;;;;;;;;;;;28.97;34.21;94409.34;4815275;29;7442;-63
2023/07/06 10:41:12;;;;;;;;;;;;;;;29.01;33.84;94401.47;4827936;29;9246;-63
2023/07/06 10:44:27;;;;;;;;;;;;;;;29.01;33.35;94406.28;4819044;29;7217;-63
2023/07/06 10:47:05;;;;;;;;;;;;;;;29.02;33.50;94410.53;4760272;30;8485;-63
2023/07/06 10:50:15;;;;;;;;;;;;;;;29.02;33.27;94402.97;4739606;30;7455;-63
2023/07/06 10:52:52;;;;;;;;;;;;;;;29.01;31.63;94400.75;4712139;30;8379;-62
2023/07/06 10:55:25;;;;;;;;;;;;;;;29.01;31.73;94395.91;4712966;30;7769;-63
2023/07/06 10:58:28;;;;;;;;;;;;;;;29.03;31.85;94406.47;4698731;30;8519;-63
2023/07/06 11:01:09;;;;;;;;;;;;;;;29.02;32.13;94394.66;4707333;30;7682;-63
2023/07/06 11:04:27;;;;;;;;;;;;;;;29.03;33.00;94390.63;4705376;30;8263;-62
2023/07/06 11:06:54;;;;;;;;;;;;;;;29.03;33.89;94396.16;4721241;30;8615;-62
2023/07/06 11:09:22;;;;;;;;;;;;;;;29.04;33.13;94392.09;4731591;30;8554;-62
2023/07/06 11:11:49;;;;;;;;;;;;;;;29.03;33.33;94404.47;4723017;30;7609;-63
2023/07/06 11:14:31;;;;;;;;;;;;;;;29.03;33.32;94396.16;4775852;29;7229;-63
2023/07/06 11:17:26;;;;;;;;;;;;;;;29.05;34.25;94399.13;4791878;29;7317;-63
2023/07/06 11:20:15;;;;;;;;;;;;;;;29.09;33.64;94390.50;4808580;29;7016;-62
2023/07/06 11:22:52;;;;;;;;;;;;;;;29.04;33.82;94392.09;4816665;29;9830;-63
2023/07/06 11:25:19;;;;;;;;;;;;;;;29.07;33.64;94390.28;4879134;29;9193;-63
2023/07/06 11:27:55;;;;;;;;;;;;;;;29.09;33.78;94390.50;4866974;28;6982;-63
2023/07/06 11:30:33;;;;;;;;;;;;;;;29.08;33.81;94386.97;4977632;28;9412;-61
2023/07/06 11:33:24;;;;;;;;;;;;;;;29.12;34.03;94400.53;4982221;28;6986;-61
2023/07/06 11:36:16;;;;;;;;;;;;;;;29.12;32.61;94402.53;4983657;28;10975;-62
2023/07/06 11:39:11;;;;;;;;;;;;;;;29.12;32.88;94399.75;4988163;28;7322;-62
2023/07/06 11:41:55;;;;;;;;;;;;;;;29.06;33.14;94392.31;4986399;28;7821;-61
2023/07/06 11:44:52;;;;;;;;;;;;;;;29.07;33.31;94395.81;4968501;28;7022;-61
2023/07/06 11:47:45;;;;;;;;;;;;;;;29.05;33.78;94392.84;4942969;28;7301;-62
2023/07/06 11:50:17;;;;;;;;;;;;;;;29.04;33.59;94394.88;4934556;28;9065;-62
2023/07/06 11:52:58;;;;;;;;;;;;;;;29.03;33.43;94390.63;4958056;28;7502;-61
2023/07/06 11:55:33;;;;;;;;;;;;;;;29.08;33.31;94386.22;4958763;28;7301;-62
2023/07/06 11:58:42;;;;;;;;;;;;;;;29.09;32.99;94385.72;4957427;28;8788;-62
2023/07/06 12:01:42;;;;;;;;;;;;;;;29.09;32.95;94380.16;4944940;28;7150;-62
2023/07/06 12:04:20;;;;;;;;;;;;;;;29.12;31.87;94392.22;4954450;28;7190;-62
2023/07/06 12:07:27;;;;;;;;;;;;;;;29.17;32.35;94387.88;4937637;28;7516;-62
2023/07/06 12:10:00;;;;;;;;;;;;;;;29.17;32.10;94382.31;4937776;28;9017;-62
2023/07/06 12:12:28;;;;;;;;;;;;;;;29.16;31.96;94378.81;4960397;28;9362;-63
2023/07/06 12:14:56;;;;;;;;;;;;;;;29.17;31.68;94371.97;4936553;28;7055;-56
2023/07/06 12:17:29;;;;;;;;;;;;;;;29.19;31.72;94371.44;4956374;28;6988;-56
2023/07/06 12:20:10;;;;;;;;;;;;;;;29.22;32.30;94370.38;4959553;28;9113;-56
2023/07/06 12:22:51;;;;;;;;;;;;;;;29.25;32.30;94370.06;4946207;28;10168;-56
2023/07/06 12:25:27;;;;;;;;;;;;;;;29.28;32.35;94371.00;5000733;28;7539;-56
2023/07/06 12:28:00;;;;;;;;;;;;;;;29.27;31.89;94363.97;4970692;28;7248;-55
2023/07/06 12:30:33;;;;;;;;;;;;;;;29.30;31.34;94366.41;4967876;28;7273;-56
2023/07/06 12:33:13;;;;;;;;;;;;;;;29.34;32.14;94360.56;4980696;28;8848;-55
2023/07/06 12:35:40;;;;;;;;;;;;;;;29.33;31.75;94370.88;4966193;28;7465;-56
2023/07/06 12:38:15;;;;;;;;;;;;;;;29.34;31.83;94361.28;4981777;28;8651;-55
2023/07/06 12:40:42;;;;;;;;;;;;;;;29.36;31.64;94366.31;4977140;28;9162;-56
2023/07/06 12:43:30;;;;;;;;;;;;;;;29.38;31.30;94367.25;4965472;28;8934;-56
2023/07/06 12:46:03;;;;;;;;;;;;;;;29.39;30.87;94359.66;4966378;28;7284;-55
2023/07/06 12:48:44;;;;;;;;;;;;;;;29.42;31.19;94358.59;4968776;28;7646;-56
2023/07/06 12:51:25;;;;;;;;;;;;;;;29.42;31.94;94355.84;4970550;28;7272;-56
2023/07/06 12:53:57;;;;;;;;;;;;;;;29.40;30.33;94356.38;4972362;28;7806;-56
2023/07/06 12:56:29;;;;;;;;;;;;;;;29.43;30.38;94365.63;4981366;28;7216;-56
2023/07/06 12:59:06;;;;;;;;;;;;;;;29.41;31.65;94357.09;4984167;28;7351;-56
2023/07/06 13:01:34;;;;;;;;;;;;;;;29.45;31.24;94341.63;4967021;28;8828;-56
2023/07/06 13:04:21;;;;;;;;;;;;;;;29.47;30.79;94343.91;5000049;28;7553;-56
2023/07/06 13:07:00;;;;;;;;;;;;;;;29.47;31.30;94350.16;4967549;28;9099;-57
2023/07/06 13:09:34;;;;;;;;;;;;;;;29.52;30.91;94340.22;4987323;28;9316;-56
2023/07/06 13:12:10;;;;;;;;;;;;;;;29.53;30.40;94352.81;4964569;28;9491;-56
2023/07/06 13:14:40;;;;;;;;;;;;;;;29.54;32.10;94337.66;4986212;28;7114;-56
2023/07/06 13:17:38;;;;;;;;;;;;;;;29.54;32.01;94332.88;4969967;28;6978;-56
2023/07/06 13:20:09;;;;;;;;;;;;;;;29.52;32.59;94326.38;4999293;28;6865;-56
2023/07/06 13:22:44;;;;;;;;;;;;;;;29.55;31.02;94331.59;4988399;28;7287;-56
2023/07/06 13:25:18;;;;;;;;;;;;;;;29.59;30.75;94322.94;4969437;28;9088;-63
2023/07/06 13:28:02;;;;;;;;;;;;;;;29.61;31.64;94331.47;4971770;28;9136;-63
2023/07/06 13:30:46;;;;;;;;;;;;;;;29.62;31.91;94322.59;4985255;28;7094;-62
2023/07/06 13:33:18;;;;;;;;;;;;;;;29.62;31.54;94321.88;4967906;28;8055;-62
2023/07/06 13:36:16;;;;;;;;;;;;;;;29.66;32.29;94327.81;4969264;28;9043;-62
2023/07/06 13:39:06;;;;;;;;;;;;;;;29.67;32.17;94332.06;4949449;28;8568;-62
2023/07/06 13:41:43;;;;;;;;;;;;;;;29.70;32.02;94328.97;4932952;28;9064;-63
2023/07/06 13:44:29;;;;;;;;;;;;;;;29.76;31.69;94332.38;4948616;28;6869;-62
2023/07/06 13:46:57;;;;;;;;;;;;;;;29.77;32.54;94324.81;4929425;28;7239;-63
2023/07/06 13:49:37;;;;;;;;;;;;;;;29.78;32.54;94324.28;4949019;28;7258;-62